Meteosat more information blitzortung!


Radar lluvias  rain snow radar


Website of another weatherstation

Website of another weatherstation



No requiere especial atención con respecto al clima.    No hay Alarmas

Informes METAR proximidad

   
LEDA - Lleida/Alguaire
Actualización: 15-12-2018 03:00
Despejado  
Despejado  
   Viento: SW 9.3 km/h
Viento: SW 9.3 km/h
Temperatura: 4°C
Térmica: 2°C
Punto de rocío: 4°C
Humedad: 100%
Baromètro: 1021 hPa
Nublado: Despejado
Visibilidad: More than 10 km
detalles de la nube: Despejado
LEDA 150200Z AUTO 22005KT 9999 NCD 04/04 Q1021
LEXJ - Santander
Actualización: 15-12-2018 03:00
Nublado  
Nublado  
   Viento: WSW 3.7 km/h
Viento: WSW 3.7 km/h
Temperatura: 11°C
Punto de rocío: 9°C
Humedad: 88%
Baromètro: 1020 hPa
Nublado: Nublado
Visibilidad: More than 10 km
detalles de la nube: Parcialmente nublado 3500 ft,
Nublado 4300 ft
LEXJ 150200Z AUTO 25002KT 9999 BKN035/// OVC043/// 11/09 Q1020
LEBB - Bilbao
Actualización: 15-12-2018 03:00
Parcialmente nublado  
Parcialmente nublado  
   Viento: SE 7.4 km/h
Viento: SE 7.4 km/h
Temperatura: 9°C
Térmica: 8°C
Punto de rocío: 7°C
Humedad: 87%
Baromètro: 1021 hPa
Nublado: Parcialmente nublado
Visibilidad: More than 10 km
detalles de la nube: Parcialmente nublado 6900 ft
LEBB 150200Z AUTO 13004KT 9999 BKN069 09/07 Q1021
LEBL - Barcelona
Actualización: 15-12-2018 03:00
Nubes dispersas  
Nubes dispersas  
   Viento: NNW 18.5 km/h
Viento: NNW 18.5 km/h
Temperatura: 8°C
Térmica: 5°C
Punto de rocío: 5°C
Humedad: 82%
Baromètro: 1020 hPa
Nublado: Nubes dispersas
Visibilidad: More than 10 km
detalles de la nube: Nubes dispersas 2500 ft
LEBL 150200Z 33010KT 9999 FEW025 08/05 Q1020 NOSIG
LEMD - Madrid
Actualización: 15-12-2018 03:00
Despejado  
Despejado  
   Viento: NNW 5.6 km/h
Viento: NNW 5.6 km/h
Temperatura: -1°C
Térmica: -3°C
Punto de rocío: -1°C
Humedad: 100%
Baromètro: 1025 hPa
Visibilidad: More than 10 km
detalles de la nube: Despejado
LEMD 150200Z 33003KT CAVOK M01/M01 Q1025 NOSIG
 

Guión original por  Saratoga-weather.org Adaptado para la plantilla por  Weerstation Leuven

Usted encontrará nuestra información del tiempo también en:

Weather Underground

Iberian Peninsula Weather Network